Time;durP1;ratioP1;P1;durP2;ratioP2;P2;SDS_P1;SDS_P2;PMS_P1;PMS_P2;Temp;Humidity;BMP_temperature;BMP_pressure;BME280_temperature;BME280_humidity;BME280_pressure;Samples;Min_cycle;Max_cycle;Signal;HPM_P1;HPM_P2
2023/04/16 00:02:14;;;;;;;83.45;39.90;;;9.00;99.90;;;;;;5092509;28;20046;-59
2023/04/16 00:04:42;;;;;;;84.95;40.17;;;9.00;99.90;;;;;;5092307;28;20048;-60
2023/04/16 00:07:09;;;;;;;86.32;40.20;;;9.00;99.90;;;;;;5098070;28;20104;-60
2023/04/16 00:09:35;;;;;;;92.28;40.55;;;9.00;99.90;;;;;;5111817;28;20446;-60
2023/04/16 00:12:00;;;;;;;101.73;42.90;;;9.00;99.90;;;;;;5112818;28;20042;-59
2023/04/16 00:14:26;;;;;;;97.22;43.42;;;9.00;99.90;;;;;;5112844;28;20038;-60
2023/04/16 00:16:52;;;;;;;103.70;41.00;;;9.00;99.90;;;;;;5111977;28;20377;-58
2023/04/16 00:19:17;;;;;;;85.43;41.50;;;9.00;99.90;;;;;;5097654;28;20463;-60
2023/04/16 00:21:43;;;;;;;89.35;40.85;;;9.00;99.90;;;;;;5104167;28;20376;-60
2023/04/16 00:24:09;;;;;;;94.68;41.28;;;9.00;99.90;;;;;;5092346;28;20560;-60
2023/04/16 00:26:35;;;;;;;98.78;42.60;;;9.00;99.90;;;;;;5105113;28;20036;-60
2023/04/16 00:29:00;;;;;;;93.15;41.65;;;9.10;99.90;;;;;;5100533;28;20036;-59
2023/04/16 00:31:36;;;;;;;83.80;39.07;;;9.00;99.90;;;;;;5098001;28;20040;-60
2023/04/16 00:34:01;;;;;;;87.35;39.90;;;9.10;99.90;;;;;;5098135;28;20278;-60
2023/04/16 00:36:28;;;;;;;78.47;39.22;;;9.10;99.90;;;;;;5104487;28;20485;-60
2023/04/16 00:38:55;;;;;;;90.53;41.03;;;9.10;99.90;;;;;;5091047;28;20032;-60
2023/04/16 00:41:21;;;;;;;94.60;41.50;;;9.10;99.90;;;;;;5103728;28;20382;-58
2023/04/16 00:43:48;;;;;;;82.38;41.17;;;9.10;99.90;;;;;;5112240;28;20114;-59
2023/04/16 00:46:15;;;;;;;86.22;43.20;;;9.10;99.90;;;;;;5112548;28;20039;-60
2023/04/16 00:48:42;;;;;;;84.63;41.10;;;9.10;99.90;;;;;;5109973;28;20043;-59
2023/04/16 00:51:09;;;;;;;79.47;39.72;;;9.10;99.90;;;;;;5112676;28;20035;-59
2023/04/16 00:53:34;;;;;;;91.38;42.63;;;9.10;99.90;;;;;;5099897;28;20174;-59
2023/04/16 00:56:05;;;;;;;84.15;40.95;;;9.10;99.90;;;;;;5091537;28;20111;-59
2023/04/16 00:58:32;;;;;;;82.32;41.22;;;9.10;99.90;;;;;;5091015;28;20036;-60
2023/04/16 01:00:58;;;;;;;85.82;39.85;;;9.10;99.90;;;;;;5090999;28;20403;-59
2023/04/16 01:03:42;;;;;;;70.85;36.80;;;9.10;99.90;;;;;;5091435;28;20036;-59
2023/04/16 01:06:08;;;;;;;83.00;39.67;;;9.10;99.90;;;;;;5091342;28;20039;-59
2023/04/16 01:08:34;;;;;;;75.78;41.60;;;9.10;99.90;;;;;;5090592;28;20093;-60
2023/04/16 01:11:00;;;;;;;75.55;42.80;;;9.10;99.90;;;;;;5091142;28;20039;-59
2023/04/16 01:13:25;;;;;;;81.40;41.20;;;9.10;99.90;;;;;;5090947;28;20063;-60
2023/04/16 01:15:51;;;;;;;77.17;41.17;;;9.10;99.90;;;;;;5091040;28;20078;-60
2023/04/16 01:18:19;;;;;;;70.18;41.15;;;9.10;99.90;;;;;;5090355;28;20478;-59
2023/04/16 01:20:46;;;;;;;59.65;37.33;;;9.10;99.90;;;;;;5095791;28;20454;-59
2023/04/16 01:23:11;;;;;;;68.63;39.03;;;9.10;99.90;;;;;;5105974;28;20048;-60
2023/04/16 01:25:37;;;;;;;70.70;41.60;;;9.10;99.90;;;;;;5094047;28;20090;-60
2023/04/16 01:28:03;;;;;;;72.13;40.10;;;9.10;99.90;;;;;;5097724;28;20340;-59
2023/04/16 01:30:29;;;;;;;70.40;40.95;;;9.10;99.90;;;;;;5102134;28;20736;-59
2023/04/16 01:32:56;;;;;;;69.00;39.08;;;9.00;99.90;;;;;;5110993;28;20501;-59
2023/04/16 01:35:22;;;;;;;73.88;40.78;;;9.10;99.90;;;;;;5104045;28;20415;-60
2023/04/16 01:37:49;;;;;;;73.78;41.28;;;9.10;99.90;;;;;;5098811;28;20040;-59
2023/04/16 01:40:15;;;;;;;67.15;41.85;;;9.00;99.90;;;;;;5095262;28;20044;-60
2023/04/16 01:42:40;;;;;;;66.40;39.93;;;9.00;99.90;;;;;;5094418;28;20032;-59
2023/04/16 01:45:06;;;;;;;64.13;36.93;;;9.10;99.90;;;;;;5098374;28;20042;-58
2023/04/16 01:47:32;;;;;;;73.60;41.17;;;9.00;99.90;;;;;;5098902;28;20219;-60
2023/04/16 01:49:59;;;;;;;57.53;37.42;;;9.00;99.90;;;;;;5106567;28;20033;-60
2023/04/16 01:52:24;;;;;;;70.10;39.10;;;9.00;99.90;;;;;;5100042;28;20125;-59
2023/04/16 01:54:50;;;;;;;72.00;40.42;;;9.00;99.90;;;;;;5110739;28;20048;-59
2023/04/16 01:57:16;;;;;;;69.57;40.10;;;9.00;99.90;;;;;;5093658;28;20040;-59
2023/04/16 01:59:41;;;;;;;64.80;39.80;;;9.00;99.90;;;;;;5089454;28;20095;-58
2023/04/16 02:02:11;;;;;;;80.60;42.30;;;9.00;99.90;;;;;;5090537;28;20274;-60
2023/04/16 02:04:38;;;;;;;65.07;39.85;;;9.00;99.90;;;;;;5090511;28;20062;-58
2023/04/16 02:07:04;;;;;;;61.97;39.45;;;9.00;99.90;;;;;;5090216;28;20673;-60
2023/04/16 02:09:30;;;;;;;69.03;40.63;;;9.00;99.90;;;;;;5105362;28;20054;-58
2023/04/16 02:11:56;;;;;;;66.07;37.63;;;9.00;99.90;;;;;;5110157;27;20036;-59
2023/04/16 02:14:24;;;;;;;71.03;41.28;;;9.00;99.90;;;;;;5110535;28;20027;-60
2023/04/16 02:16:50;;;;;;;72.85;42.47;;;9.00;99.90;;;;;;5110633;28;20036;-60
2023/04/16 02:19:16;;;;;;;67.32;39.33;;;9.00;99.90;;;;;;5109008;28;20046;-60
2023/04/16 02:21:41;;;;;;;65.85;41.47;;;8.90;99.90;;;;;;5110498;28;20044;-59
2023/04/16 02:24:07;;;;;;;70.13;42.67;;;8.90;99.90;;;;;;5110261;28;20058;-59
2023/04/16 02:26:33;;;;;;;65.97;40.73;;;8.90;99.90;;;;;;5109971;28;20090;-59
2023/04/16 02:28:58;;;;;;;66.77;40.33;;;8.90;99.90;;;;;;5109276;28;20265;-60
2023/04/16 02:31:24;;;;;;;61.05;39.20;;;9.00;99.90;;;;;;5110549;28;20040;-60
2023/04/16 02:33:49;;;;;;;67.40;39.90;;;8.90;99.90;;;;;;5110580;28;20031;-60
2023/04/16 02:36:15;;;;;;;69.47;39.30;;;8.90;99.90;;;;;;5108377;28;20377;-58
2023/04/16 02:38:41;;;;;;;68.45;39.42;;;8.90;99.90;;;;;;5091224;28;20059;-59
2023/04/16 02:41:06;;;;;;;68.53;37.63;;;8.90;99.90;;;;;;5099870;28;20034;-59
2023/04/16 02:43:32;;;;;;;65.53;39.67;;;8.90;99.90;;;;;;5098732;28;20054;-59
2023/04/16 02:45:58;;;;;;;70.60;39.87;;;8.90;99.90;;;;;;5109449;28;20092;-59
2023/04/16 02:48:24;;;;;;;63.80;39.72;;;8.90;99.90;;;;;;5109157;28;20043;-59
2023/04/16 02:50:49;;;;;;;64.55;39.80;;;8.90;99.90;;;;;;5105840;28;20138;-59
2023/04/16 02:53:15;;;;;;;70.82;40.55;;;8.90;99.90;;;;;;5101131;28;20050;-58
2023/04/16 02:55:41;;;;;;;65.70;38.20;;;8.90;99.90;;;;;;5103203;28;20032;-59
2023/04/16 02:58:06;;;;;;;59.77;38.50;;;8.90;99.90;;;;;;5102771;28;20497;-60
2023/04/16 03:00:32;;;;;;;66.67;39.07;;;8.90;99.90;;;;;;5110671;28;20043;-59
2023/04/16 03:02:57;;;;;;;65.83;40.57;;;8.90;99.90;;;;;;5110632;28;20556;-59
2023/04/16 03:05:23;;;;;;;72.63;40.47;;;8.90;99.90;;;;;;5093741;28;20165;-58
2023/04/16 03:07:49;;;;;;;65.07;37.83;;;8.80;99.90;;;;;;5092698;28;20050;-60
2023/04/16 03:10:15;;;;;;;61.80;38.97;;;8.80;99.90;;;;;;5092800;28;20040;-59
2023/04/16 03:12:41;;;;;;;74.25;37.95;;;8.80;99.90;;;;;;5093920;28;20044;-60
2023/04/16 03:15:07;;;;;;;68.20;37.35;;;8.80;99.90;;;;;;5095359;28;20434;-59
2023/04/16 03:17:32;;;;;;;68.82;37.90;;;8.80;99.90;;;;;;5112964;28;20031;-59
2023/04/16 03:19:58;;;;;;;60.73;39.23;;;8.80;99.90;;;;;;5113699;28;20429;-59
2023/04/16 03:22:24;;;;;;;67.63;39.93;;;8.80;99.90;;;;;;5114457;28;20040;-59
2023/04/16 03:24:50;;;;;;;71.95;40.92;;;8.80;99.90;;;;;;5113093;28;20496;-60
2023/04/16 03:27:15;;;;;;;64.50;40.05;;;8.80;99.90;;;;;;5113853;28;20043;-58
2023/04/16 03:29:41;;;;;;;67.93;38.90;;;8.80;99.90;;;;;;5111268;28;20488;-59
2023/04/16 03:32:07;;;;;;;67.37;38.53;;;8.70;99.90;;;;;;5113560;28;20369;-60
2023/04/16 03:34:32;;;;;;;62.97;39.70;;;8.80;99.90;;;;;;5113666;28;20512;-60
2023/04/16 03:36:58;;;;;;;70.27;41.43;;;8.80;99.90;;;;;;5113222;28;20104;-60
2023/04/16 03:39:23;;;;;;;67.40;37.55;;;8.70;99.90;;;;;;5111355;28;20046;-59
2023/04/16 03:41:49;;;;;;;64.60;39.50;;;8.80;99.90;;;;;;5113536;28;20146;-59
2023/04/16 03:44:14;;;;;;;64.73;38.60;;;8.80;99.90;;;;;;5112322;28;20047;-60
2023/04/16 03:46:40;;;;;;;64.90;38.57;;;8.70;99.90;;;;;;5108709;28;20093;-59
2023/04/16 03:49:06;;;;;;;60.47;34.70;;;8.70;99.90;;;;;;5101782;28;20051;-59
2023/04/16 03:51:31;;;;;;;56.20;38.40;;;8.80;99.90;;;;;;5109901;28;20040;-60
2023/04/16 03:53:57;;;;;;;69.00;40.47;;;8.70;99.90;;;;;;5112702;28;20322;-59
2023/04/16 03:56:22;;;;;;;61.80;39.00;;;8.70;99.90;;;;;;5113197;28;20096;-60
2023/04/16 03:58:48;;;;;;;62.20;37.27;;;8.70;99.90;;;;;;5106252;28;20063;-59
2023/04/16 04:01:14;;;;;;;64.33;39.17;;;8.70;99.90;;;;;;5103978;28;20281;-58
2023/04/16 04:03:39;;;;;;;59.03;37.67;;;8.70;99.90;;;;;;5093585;28;20055;-59
2023/04/16 04:06:08;;;;;;;57.63;36.27;;;8.60;99.90;;;;;;5097824;28;20040;-60
2023/04/16 04:08:34;;;;;;;60.63;37.58;;;8.60;99.90;;;;;;5111434;28;20032;-59
2023/04/16 04:11:00;;;;;;;59.75;39.17;;;8.60;99.90;;;;;;5112791;28;20446;-59
2023/04/16 04:13:26;;;;;;;64.70;40.57;;;8.60;99.90;;;;;;5112833;28;20447;-60
2023/04/16 04:15:51;;;;;;;58.67;38.67;;;8.50;99.90;;;;;;5112604;28;20317;-59
2023/04/16 04:18:17;;;;;;;61.63;39.30;;;8.50;99.90;;;;;;5104564;28;20085;-58
2023/04/16 04:20:43;;;;;;;66.37;39.07;;;8.50;99.90;;;;;;5092453;28;20064;-59
2023/04/16 04:23:09;;;;;;;63.95;38.97;;;8.50;99.90;;;;;;5092250;28;20050;-60
2023/04/16 04:25:35;;;;;;;61.30;40.97;;;8.50;99.90;;;;;;5092435;28;20032;-60
2023/04/16 04:28:00;;;;;;;64.53;39.33;;;8.50;99.90;;;;;;5091146;28;20105;-59
2023/04/16 04:30:26;;;;;;;67.40;40.47;;;8.50;99.90;;;;;;5092121;28;20072;-60
2023/04/16 04:32:52;;;;;;;68.15;41.13;;;8.50;99.90;;;;;;5092624;28;20046;-59
2023/04/16 04:35:17;;;;;;;61.63;39.83;;;8.50;99.90;;;;;;5092473;28;20071;-58
2023/04/16 04:37:43;;;;;;;60.90;39.57;;;8.40;99.90;;;;;;5090601;28;20036;-59
2023/04/16 04:40:09;;;;;;;62.47;40.23;;;8.40;99.90;;;;;;5091717;28;20785;-59
2023/04/16 04:42:36;;;;;;;61.17;40.67;;;8.40;99.90;;;;;;5092103;28;20093;-59
2023/04/16 04:45:02;;;;;;;60.65;39.00;;;8.40;99.90;;;;;;5092053;28;20032;-59
2023/04/16 04:47:27;;;;;;;56.13;39.93;;;8.40;99.90;;;;;;5090993;28;20047;-59
2023/04/16 04:49:53;;;;;;;62.10;40.73;;;8.40;99.90;;;;;;5091451;28;20040;-59
2023/04/16 04:52:19;;;;;;;64.03;40.10;;;8.50;99.90;;;;;;5089954;28;20417;-59
2023/04/16 04:54:45;;;;;;;57.15;38.17;;;8.50;99.90;;;;;;5103720;28;20051;-59
2023/04/16 04:57:10;;;;;;;61.80;39.50;;;8.50;99.90;;;;;;5101636;28;20044;-60
2023/04/16 04:59:36;;;;;;;61.23;41.27;;;8.40;99.90;;;;;;5102296;28;20121;-59
2023/04/16 05:02:02;;;;;;;58.03;37.43;;;8.40;99.90;;;;;;5101539;28;20035;-59
2023/04/16 05:04:28;;;;;;;59.65;40.55;;;8.40;99.90;;;;;;5093459;28;20032;-59
2023/04/16 05:06:54;;;;;;;60.65;38.15;;;8.40;99.90;;;;;;5094305;28;20052;-60
2023/04/16 05:09:20;;;;;;;61.60;40.47;;;8.40;99.90;;;;;;5102457;28;20038;-60
2023/04/16 05:11:45;;;;;;;59.35;39.55;;;8.50;99.90;;;;;;5090416;28;20393;-59
2023/04/16 05:14:11;;;;;;;67.70;40.57;;;8.50;99.90;;;;;;5101417;28;20031;-59
2023/04/16 05:16:37;;;;;;;56.07;35.67;;;8.50;99.90;;;;;;5111202;28;20093;-60
2023/04/16 05:19:03;;;;;;;69.22;41.20;;;8.50;99.90;;;;;;5110195;28;20040;-59
2023/04/16 05:21:28;;;;;;;63.20;39.47;;;8.40;99.90;;;;;;5111782;28;20046;-60
2023/04/16 05:23:54;;;;;;;64.27;41.13;;;8.50;99.90;;;;;;5111577;28;20370;-60
2023/04/16 05:26:20;;;;;;;66.40;38.42;;;8.50;99.90;;;;;;5101238;28;20036;-60
2023/04/16 05:28:45;;;;;;;62.55;38.30;;;8.50;99.90;;;;;;5089682;28;20028;-60
2023/04/16 05:31:11;;;;;;;66.15;38.40;;;8.50;99.90;;;;;;5090909;28;20292;-59
2023/04/16 05:33:37;;;;;;;66.35;40.47;;;8.50;99.90;;;;;;5090934;28;20115;-59
2023/04/16 05:36:02;;;;;;;62.17;39.20;;;8.50;99.90;;;;;;5090398;28;20032;-59
2023/04/16 05:38:28;;;;;;;69.40;37.47;;;8.60;99.90;;;;;;5090127;28;20043;-60
2023/04/16 05:40:54;;;;;;;63.90;38.63;;;8.60;99.90;;;;;;5090428;28;20035;-58
2023/04/16 05:43:20;;;;;;;63.78;39.00;;;8.60;99.90;;;;;;5090683;28;20378;-59
2023/04/16 05:45:45;;;;;;;58.67;37.83;;;8.70;99.90;;;;;;5090575;28;20047;-58
2023/04/16 05:48:12;;;;;;;59.03;38.13;;;8.60;99.90;;;;;;5090198;28;20270;-59
2023/04/16 05:50:38;;;;;;;61.25;38.45;;;8.70;99.90;;;;;;5089813;28;20382;-59
2023/04/16 05:53:06;;;;;;;61.03;40.03;;;8.70;99.90;;;;;;5090648;28;20047;-59
2023/04/16 05:55:32;;;;;;;61.25;39.40;;;8.70;99.90;;;;;;5090376;28;20048;-60
2023/04/16 05:57:58;;;;;;;66.35;40.03;;;8.70;99.90;;;;;;5099894;28;20401;-59
2023/04/16 06:00:24;;;;;;;61.97;40.08;;;8.70;99.90;;;;;;5110404;27;20036;-59
2023/04/16 06:02:49;;;;;;;59.35;36.65;;;8.80;99.90;;;;;;5110679;28;20059;-58
2023/04/16 06:05:15;;;;;;;61.58;37.03;;;8.70;99.90;;;;;;5110199;28;20031;-59
2023/04/16 06:07:41;;;;;;;69.25;37.58;;;8.70;99.90;;;;;;5109448;28;20040;-59
2023/04/16 06:10:07;;;;;;;63.33;39.13;;;8.70;99.90;;;;;;5110460;28;20035;-59
2023/04/16 06:12:33;;;;;;;57.55;35.22;;;8.80;99.90;;;;;;5110546;28;20565;-59
2023/04/16 06:15:00;;;;;;;70.53;39.08;;;8.70;99.90;;;;;;5110859;28;20094;-60
2023/04/16 06:17:25;;;;;;;65.22;38.38;;;8.80;99.90;;;;;;5109844;28;20058;-59
2023/04/16 06:19:51;;;;;;;59.78;36.13;;;8.80;99.90;;;;;;5109523;28;20525;-58
2023/04/16 06:22:17;;;;;;;54.83;35.03;;;8.80;99.90;;;;;;5110482;28;20462;-59
2023/04/16 06:24:43;;;;;;;66.22;38.80;;;8.80;99.90;;;;;;5110717;28;20319;-60
2023/04/16 06:27:09;;;;;;;58.47;33.92;;;8.90;99.90;;;;;;5110382;28;20067;-59
2023/04/16 06:29:34;;;;;;;67.20;37.88;;;8.90;99.90;;;;;;5108249;28;20496;-59
2023/04/16 06:32:00;;;;;;;61.83;36.87;;;8.90;99.90;;;;;;5103346;28;20064;-60
2023/04/16 06:34:27;;;;;;;60.42;38.38;;;8.90;99.90;;;;;;5099593;28;20634;-59
2023/04/16 06:36:52;;;;;;;59.00;34.72;;;9.00;99.90;;;;;;5110623;28;20074;-60
2023/04/16 06:39:20;;;;;;;55.73;35.40;;;9.00;99.90;;;;;;5092438;28;20513;-60
2023/04/16 06:41:47;;;;;;;50.15;34.08;;;9.00;99.90;;;;;;5090061;28;20051;-59
2023/04/16 06:44:12;;;;;;;;;;;9.10;99.90;;;;;;5098340;28;20077;-58
2023/04/16 06:46:38;;;;;;;51.72;32.03;;;9.10;99.90;;;;;;5095701;28;20342;-60
2023/04/16 06:49:03;;;;;;;55.87;34.03;;;9.10;99.90;;;;;;5088117;28;20036;-60
2023/04/16 06:51:29;;;;;;;56.53;34.83;;;9.20;99.90;;;;;;5090968;28;20036;-61
2023/04/16 06:53:55;;;;;;;55.30;34.78;;;9.20;99.90;;;;;;5106039;28;20493;-61
2023/04/16 06:56:20;;;;;;;59.63;36.03;;;9.30;99.90;;;;;;5098659;28;20032;-61
2023/04/16 06:58:46;;;;;;;64.67;35.53;;;9.30;99.90;;;;;;5102877;28;20035;-61
2023/04/16 07:01:12;;;;;;;56.63;34.67;;;9.30;99.90;;;;;;5103250;28;20404;-60
2023/04/16 07:03:37;;;;;;;54.40;35.13;;;9.40;99.90;;;;;;5104822;28;20126;-61
2023/04/16 07:06:03;;;;;;;61.20;36.65;;;9.40;99.90;;;;;;5102032;28;20070;-61
2023/04/16 07:08:29;;;;;;;55.00;33.37;;;9.50;99.90;;;;;;5093403;28;20390;-61
2023/04/16 07:10:54;;;;;;;58.00;33.22;;;9.40;99.90;;;;;;5098886;28;20277;-61
2023/04/16 07:13:20;;;;;;;53.08;35.00;;;9.50;99.90;;;;;;5100782;28;20048;-60
2023/04/16 07:15:46;;;;;;;53.60;33.70;;;9.50;99.90;;;;;;5094569;28;20040;-61
2023/04/16 07:18:12;;;;;;;55.05;32.72;;;9.60;99.90;;;;;;5107002;28;20039;-61
2023/04/16 07:20:37;;;;;;;49.60;33.85;;;9.60;99.90;;;;;;5109552;28;20484;-61
2023/04/16 07:23:03;;;;;;;57.30;34.93;;;9.60;99.90;;;;;;5109930;28;20321;-61
2023/04/16 07:25:29;;;;;;;52.33;33.45;;;9.60;99.90;;;;;;5109767;28;20052;-61
2023/04/16 07:27:54;;;;;;;49.43;31.83;;;9.60;99.90;;;;;;5106697;28;20051;-61
2023/04/16 07:30:20;;;;;;;51.27;31.27;;;9.70;99.90;;;;;;5103725;28;20290;-61
2023/04/16 07:32:45;;;;;;;50.20;32.97;;;9.70;99.90;;;;;;5108064;28;20040;-61
2023/04/16 07:35:11;;;;;;;56.93;32.60;;;9.70;99.90;;;;;;5109027;28;20273;-61
2023/04/16 07:37:36;;;;;;;52.80;32.07;;;9.70;99.90;;;;;;5108287;28;20115;-61
2023/04/16 07:40:03;;;;;;;54.43;33.50;;;9.70;99.90;;;;;;5099551;28;20097;-61
2023/04/16 07:42:28;;;;;;;51.42;32.05;;;9.70;99.90;;;;;;5095427;28;20806;-61
2023/04/16 07:44:54;;;;;;;50.17;33.53;;;9.70;99.90;;;;;;5092725;28;20166;-61
2023/04/16 07:47:21;;;;;;;53.30;33.92;;;9.70;99.90;;;;;;5099275;28;20067;-61
2023/04/16 07:49:48;;;;;;;49.42;30.52;;;9.70;99.90;;;;;;5106971;28;20188;-61
2023/04/16 07:52:14;;;;;;;49.28;30.58;;;9.70;99.90;;;;;;5113303;28;20044;-61
2023/04/16 07:54:39;;;;;;;47.97;31.02;;;9.70;99.90;;;;;;5108160;28;20578;-61
2023/04/16 07:57:05;;;;;;;50.10;29.40;;;9.70;99.90;;;;;;5093218;28;20032;-61
2023/04/16 07:59:31;;;;;;;48.73;29.63;;;9.70;99.90;;;;;;5097191;28;20048;-61
2023/04/16 08:01:56;;;;;;;47.70;31.37;;;9.70;99.90;;;;;;5112323;28;20266;-60
2023/04/16 08:04:23;;;;;;;49.03;31.30;;;9.70;99.90;;;;;;5100369;28;20427;-61
2023/04/16 08:06:52;;;;;;;51.30;31.73;;;9.70;99.90;;;;;;5110643;28;20101;-61
2023/04/16 08:09:19;;;;;;;52.88;31.35;;;9.70;99.90;;;;;;5111636;28;20039;-61
2023/04/16 08:11:45;;;;;;;54.72;32.17;;;9.80;99.90;;;;;;5103197;28;20326;-61
2023/04/16 08:14:10;;;;;;;45.73;30.40;;;9.80;99.90;;;;;;5097102;28;20409;-61
2023/04/16 08:16:37;;;;;;;53.13;33.30;;;9.90;99.90;;;;;;5099334;28;20274;-61
2023/04/16 08:19:03;;;;;;;46.47;30.33;;;10.00;99.90;;;;;;5099529;28;20039;-60
2023/04/16 08:21:29;;;;;;;47.70;31.20;;;10.00;99.90;;;;;;5099714;28;20112;-60
2023/04/16 08:23:55;;;;;;;;;;;10.10;99.90;;;;;;5106834;28;20512;-59
2023/04/16 08:26:20;;;;;;;51.72;30.80;;;10.10;99.90;;;;;;5093037;28;19922;-61
2023/04/16 08:28:46;;;;;;;51.90;29.40;;;10.20;99.90;;;;;;5097431;28;20078;-60
2023/04/16 08:31:11;;;;;;;51.07;32.00;;;10.20;99.90;;;;;;5092409;28;20040;-60
2023/04/16 08:33:37;;;;;;;53.80;31.88;;;10.30;99.90;;;;;;5102932;28;20078;-60
2023/04/16 08:36:03;;;;;;;48.67;30.83;;;10.40;99.90;;;;;;5104371;28;20027;-60
2023/04/16 08:38:28;;;;;;;56.85;31.83;;;10.40;99.90;;;;;;5092158;28;20111;-60
2023/04/16 08:40:56;;;;;;;54.13;32.00;;;10.50;99.90;;;;;;5104128;28;20110;-60
2023/04/16 08:43:23;;;;;;;50.97;30.25;;;10.50;99.90;;;;;;5111502;28;20338;-60
2023/04/16 08:45:52;;;;;;;48.70;31.45;;;10.60;99.90;;;;;;5108578;28;20408;-61
2023/04/16 08:48:20;;;;;;;45.58;29.17;;;10.60;99.90;;;;;;5105798;28;20070;-60
2023/04/16 08:50:50;;;;;;;40.05;29.50;;;10.70;99.90;;;;;;5110940;27;20126;-62
2023/04/16 08:53:19;;;;;;;50.20;30.08;;;10.80;99.90;;;;;;5109270;28;20189;-61
2023/04/16 08:55:50;;;;;;;45.75;28.75;;;10.80;99.90;;;;;;5098521;28;20392;-61
2023/04/16 08:58:20;;;;;;;40.80;28.38;;;10.90;99.90;;;;;;5110777;28;20404;-61
2023/04/16 09:00:47;;;;;;;41.20;28.40;;;10.90;99.90;;;;;;5109117;28;20039;-61
2023/04/16 09:03:12;;;;;;;;;;;11.00;99.90;;;;;;5108012;28;20044;-61
2023/04/16 09:05:38;;;;;;;41.97;26.92;;;11.10;99.90;;;;;;5096648;28;19935;-61
2023/04/16 09:08:05;;;;;;;44.95;27.75;;;11.10;99.90;;;;;;5091095;28;20058;-61
2023/04/16 09:10:31;;;;;;;41.17;27.73;;;11.20;99.90;;;;;;5103581;28;20424;-60
2023/04/16 09:12:57;;;;;;;46.45;27.67;;;11.30;99.90;;;;;;5111330;28;20043;-60
2023/04/16 09:15:27;;;;;;;39.30;26.35;;;11.30;99.90;;;;;;5099124;28;20047;-61
2023/04/16 09:17:55;;;;;;;38.50;25.05;;;11.40;99.90;;;;;;5090269;28;20491;-60
2023/04/16 09:20:20;;;;;;;40.70;25.63;;;11.50;99.90;;;;;;5102553;28;20046;-61
2023/04/16 09:22:47;;;;;;;38.22;23.08;;;11.60;99.90;;;;;;5110787;28;20512;-59
2023/04/16 09:25:13;;;;;;;32.95;23.63;;;11.70;99.90;;;;;;5101734;28;20063;-61
2023/04/16 09:27:39;;;;;;;38.53;23.08;;;11.80;99.90;;;;;;5090300;28;20036;-61
2023/04/16 09:30:22;;;;;;;35.78;22.92;;;11.90;99.90;;;;;;5095976;28;20455;-60
2023/04/16 09:32:49;;;;;;;34.33;24.13;;;12.10;99.90;;;;;;5090768;28;20036;-61
2023/04/16 09:35:19;;;;;;;30.83;21.75;;;12.30;99.90;;;;;;5105702;28;20043;-61
2023/04/16 09:37:57;;;;;;;32.45;22.65;;;12.50;99.90;;;;;;5109541;28;20542;-62
2023/04/16 09:40:29;;;;;;;28.85;21.65;;;12.60;99.90;;;;;;5108988;28;20033;-62
2023/04/16 09:42:59;;;;;;;30.40;20.55;;;12.80;99.90;;;;;;5111192;28;20054;-61
2023/04/16 09:45:26;;;;;;;31.83;21.90;;;13.00;99.90;;;;;;5095271;28;20048;-61
2023/04/16 09:48:02;;;;;;;31.90;21.38;;;13.10;99.90;;;;;;5088988;28;20032;-62
2023/04/16 09:50:28;;;;;;;30.63;20.50;;;13.10;99.90;;;;;;5100425;28;20051;-61
2023/04/16 09:52:53;;;;;;;28.75;20.92;;;13.10;99.90;;;;;;5107504;28;20031;-62
2023/04/16 09:55:25;;;;;;;29.48;21.40;;;13.00;99.90;;;;;;5104446;28;20130;-62
2023/04/16 09:57:59;;;;;;;36.05;22.27;;;13.00;99.90;;;;;;5107969;28;20473;-61
2023/04/16 10:00:24;;;;;;;24.85;20.02;;;12.90;99.90;;;;;;5107971;28;20051;-61
2023/04/16 10:03:05;;;;;;;27.77;21.52;;;13.00;99.90;;;;;;5109686;28;20039;-61
2023/04/16 10:05:31;;;;;;;25.65;20.73;;;12.90;99.90;;;;;;5111135;28;20047;-62
2023/04/16 10:08:00;;;;;;;29.38;21.48;;;12.90;99.90;;;;;;5100627;28;20048;-61
2023/04/16 10:10:26;;;;;;;26.63;20.23;;;12.80;99.90;;;;;;5098479;28;20046;-62
2023/04/16 10:12:52;;;;;;;29.67;20.05;;;12.90;99.90;;;;;;5104753;28;20036;-61
2023/04/16 10:15:18;;;;;;;36.83;20.35;;;12.90;99.90;;;;;;5095067;28;20519;-61
2023/04/16 10:17:45;;;;;;;28.25;19.77;;;12.90;99.90;;;;;;5090809;28;20065;-61
2023/04/16 10:20:10;;;;;;;27.40;20.70;;;12.90;99.90;;;;;;5103127;28;20055;-60
2023/04/16 10:22:36;;;;;;;27.25;19.83;;;13.00;99.90;;;;;;5101470;28;20381;-61
2023/04/16 10:25:02;;;;;;;36.13;20.05;;;12.90;99.90;;;;;;5091564;28;20540;-61
2023/04/16 10:27:29;;;;;;;29.38;19.98;;;13.00;99.90;;;;;;5089263;28;20562;-60
2023/04/16 10:29:55;;;;;;;26.58;19.50;;;13.10;99.90;;;;;;5106146;28;20657;-60
2023/04/16 10:32:21;;;;;;;;;;;13.10;99.90;;;;;;5110951;28;20043;-60
2023/04/16 10:34:47;;;;;;;29.52;20.23;;;13.20;99.90;;;;;;5094763;28;19920;-60
2023/04/16 10:37:14;;;;;;;25.33;19.45;;;13.20;99.90;;;;;;5090023;28;20114;-60
2023/04/16 10:39:40;;;;;;;25.60;18.70;;;13.30;99.90;;;;;;5089229;28;20074;-60
2023/04/16 10:42:08;;;;;;;29.57;19.70;;;13.40;99.90;;;;;;5090257;28;20516;-60
2023/04/16 10:44:34;;;;;;;29.13;20.05;;;13.40;99.90;;;;;;5091625;28;20286;-60
2023/04/16 10:47:00;;;;;;;29.20;19.70;;;13.50;99.90;;;;;;5090103;28;20048;-60
2023/04/16 10:49:25;;;;;;;30.85;19.70;;;13.50;99.90;;;;;;5092948;28;20119;-60
2023/04/16 10:51:53;;;;;;;25.98;19.40;;;13.50;99.90;;;;;;5089443;28;20416;-60
2023/04/16 10:54:22;;;;;;;25.27;18.27;;;13.60;99.90;;;;;;5091528;28;20489;-60
2023/04/16 10:56:49;;;;;;;41.30;20.58;;;13.70;99.90;;;;;;5101724;28;20691;-60
2023/04/16 10:59:18;;;;;;;26.30;18.80;;;13.70;99.90;;;;;;5098678;28;20493;-60
2023/04/16 11:01:53;;;;;;;30.42;18.85;;;13.80;99.90;;;;;;5097871;28;20043;-60
2023/04/16 11:04:19;;;;;;;26.58;18.83;;;13.90;99.90;;;;;;5096169;28;20040;-60
2023/04/16 11:07:15;;;;;;;25.40;18.23;;;13.90;99.90;;;;;;5108755;28;20570;-60
2023/04/16 11:09:47;;;;;;;30.73;18.80;;;13.90;99.90;;;;;;5107120;28;20063;-60
2023/04/16 11:12:15;;;;;;;22.45;17.20;;;14.00;99.90;;;;;;5109787;28;20044;-60
2023/04/16 11:14:41;;;;;;;26.00;18.05;;;14.00;99.90;;;;;;5101193;28;20040;-60
2023/04/16 11:17:07;;;;;;;25.35;16.90;;;14.10;99.90;;;;;;5099024;28;20032;-61
2023/04/16 11:19:37;;;;;;;24.45;17.70;;;14.20;99.90;;;;;;5106600;27;20034;-60
2023/04/16 11:22:02;;;;;;;26.13;18.77;;;14.20;99.90;;;;;;5093554;28;20054;-60
2023/04/16 11:24:29;;;;;;;28.30;18.80;;;14.30;99.90;;;;;;5098557;28;20043;-60
2023/04/16 11:26:55;;;;;;;22.85;18.92;;;14.30;99.90;;;;;;5113715;28;20035;-61
2023/04/16 11:29:21;;;;;;;33.17;19.40;;;14.40;99.90;;;;;;5110078;27;20138;-60
2023/04/16 11:31:51;;;;;;;19.98;16.63;;;14.40;99.90;;;;;;5093041;28;20123;-60
2023/04/16 11:34:17;;;;;;;26.50;16.75;;;14.50;99.90;;;;;;5103915;28;20036;-60
2023/04/16 11:36:44;;;;;;;25.00;18.08;;;14.50;99.90;;;;;;5113551;28;20042;-60
2023/04/16 11:39:09;;;;;;;20.38;15.98;;;14.50;99.90;;;;;;5102700;27;20035;-60
2023/04/16 11:41:42;;;;;;;22.08;15.75;;;14.60;99.90;;;;;;5109049;28;20035;-60
2023/04/16 11:44:18;;;;;;;28.33;17.08;;;14.70;99.90;;;;;;5100839;28;20035;-60
2023/04/16 11:46:43;;;;;;;19.25;15.77;;;14.70;99.90;;;;;;5102655;28;20032;-59
2023/04/16 11:49:09;;;;;;;23.00;16.17;;;14.70;99.90;;;;;;5100547;28;20039;-59
2023/04/16 11:51:42;;;;;;;25.75;16.95;;;14.80;99.90;;;;;;5100349;28;20427;-60
2023/04/16 11:54:09;;;;;;;26.70;18.42;;;14.80;99.90;;;;;;5106933;28;20035;-60
2023/04/16 11:56:36;;;;;;;;;;;14.80;99.90;;;;;;5112716;28;20067;-60
2023/04/16 11:59:12;;;;;;;26.13;17.42;;;14.80;99.90;;;;;;5108615;28;19920;-60
2023/04/16 12:01:39;;;;;;;28.27;16.77;;;14.80;99.90;;;;;;5105796;28;20375;-60
2023/04/16 12:04:05;;;;;;;23.88;16.92;;;14.80;99.90;;;;;;5100358;28;20519;-60
2023/04/16 12:06:31;;;;;;;;;;;14.80;99.90;;;;;;5113501;28;20036;-61
2023/04/16 12:08:58;;;;;;;24.45;16.33;;;14.90;99.90;;;;;;5110189;28;19923;-61
2023/04/16 12:11:39;;;;;;;22.60;16.70;;;14.80;99.90;;;;;;5113195;28;20054;-60
2023/04/16 12:14:09;;;;;;;28.30;15.82;;;14.70;99.90;;;;;;5110908;28;20051;-60
2023/04/16 12:16:34;;;;;;;21.70;16.02;;;14.70;99.90;;;;;;5113044;28;20040;-61
2023/04/16 12:19:02;;;;;;;24.17;16.83;;;14.80;99.90;;;;;;5108133;28;20039;-61
2023/04/16 12:21:42;;;;;;;21.15;15.48;;;14.90;99.90;;;;;;5104434;28;20035;-61
2023/04/16 12:24:11;;;;;;;19.55;15.77;;;15.00;99.90;;;;;;5110131;28;20035;-61
2023/04/16 12:26:45;;;;;;;22.10;14.95;;;15.00;99.90;;;;;;5090547;28;20052;-60
2023/04/16 12:29:15;;;;;;;21.20;15.60;;;15.20;99.90;;;;;;5094168;28;20058;-59
2023/04/16 12:31:41;;;;;;;24.10;16.85;;;15.30;99.90;;;;;;5102533;28;20044;-60
2023/04/16 12:34:06;;;;;;;22.88;14.35;;;15.50;99.90;;;;;;5104148;28;20553;-61